sensor_id;sensor_type;location;lat;lon;timestamp;P1;durP1;ratioP1;P2;durP2;ratioP2
13493;SDS011;6819;50.886;4.332;2022-08-19T00:01:09;16.55;;;12.20;;
13493;SDS011;6819;50.886;4.332;2022-08-19T00:03:35;23.85;;;14.70;;
13493;SDS011;6819;50.886;4.332;2022-08-19T00:06:01;29.08;;;15.95;;
13493;SDS011;6819;50.886;4.332;2022-08-19T00:08:28;24.60;;;17.17;;
13493;SDS011;6819;50.886;4.332;2022-08-19T00:10:54;19.10;;;13.85;;
13493;SDS011;6819;50.886;4.332;2022-08-19T00:13:20;23.35;;;14.82;;
13493;SDS011;6819;50.886;4.332;2022-08-19T00:15:46;19.67;;;14.00;;
13493;SDS011;6819;50.886;4.332;2022-08-19T00:18:12;24.42;;;15.15;;
13493;SDS011;6819;50.886;4.332;2022-08-19T00:20:38;20.17;;;13.80;;
13493;SDS011;6819;50.886;4.332;2022-08-19T00:23:05;20.88;;;14.98;;
13493;SDS011;6819;50.886;4.332;2022-08-19T00:25:31;31.88;;;18.35;;
13493;SDS011;6819;50.886;4.332;2022-08-19T00:27:58;32.28;;;19.55;;
13493;SDS011;6819;50.886;4.332;2022-08-19T00:30:25;41.17;;;23.60;;
13493;SDS011;6819;50.886;4.332;2022-08-19T00:32:52;37.85;;;23.38;;
13493;SDS011;6819;50.886;4.332;2022-08-19T00:35:20;40.90;;;25.08;;
13493;SDS011;6819;50.886;4.332;2022-08-19T00:37:47;46.80;;;27.15;;
13493;SDS011;6819;50.886;4.332;2022-08-19T00:40:14;42.45;;;25.50;;
13493;SDS011;6819;50.886;4.332;2022-08-19T00:42:40;53.25;;;28.55;;
13493;SDS011;6819;50.886;4.332;2022-08-19T00:45:11;45.47;;;25.42;;
13493;SDS011;6819;50.886;4.332;2022-08-19T00:47:37;49.95;;;27.45;;
13493;SDS011;6819;50.886;4.332;2022-08-19T00:50:04;43.78;;;25.75;;
13493;SDS011;6819;50.886;4.332;2022-08-19T00:52:32;46.58;;;26.85;;
13493;SDS011;6819;50.886;4.332;2022-08-19T00:54:59;47.42;;;27.00;;
13493;SDS011;6819;50.886;4.332;2022-08-19T00:57:32;44.75;;;26.95;;
13493;SDS011;6819;50.886;4.332;2022-08-19T01:00:00;43.38;;;25.83;;
13493;SDS011;6819;50.886;4.332;2022-08-19T01:02:28;50.10;;;28.15;;
13493;SDS011;6819;50.886;4.332;2022-08-19T01:04:54;50.17;;;28.42;;
13493;SDS011;6819;50.886;4.332;2022-08-19T01:07:20;47.58;;;27.33;;
13493;SDS011;6819;50.886;4.332;2022-08-19T01:09:46;49.88;;;26.73;;
13493;SDS011;6819;50.886;4.332;2022-08-19T01:12:12;49.88;;;29.10;;
13493;SDS011;6819;50.886;4.332;2022-08-19T01:14:39;51.70;;;29.42;;
13493;SDS011;6819;50.886;4.332;2022-08-19T01:17:06;45.28;;;26.48;;
13493;SDS011;6819;50.886;4.332;2022-08-19T01:19:35;47.05;;;27.83;;
13493;SDS011;6819;50.886;4.332;2022-08-19T01:22:03;49.17;;;28.15;;
13493;SDS011;6819;50.886;4.332;2022-08-19T01:24:31;44.90;;;26.05;;
13493;SDS011;6819;50.886;4.332;2022-08-19T01:26:57;44.80;;;26.98;;
13493;SDS011;6819;50.886;4.332;2022-08-19T01:29:23;48.10;;;29.45;;
13493;SDS011;6819;50.886;4.332;2022-08-19T01:31:49;52.42;;;28.20;;
13493;SDS011;6819;50.886;4.332;2022-08-19T01:34:17;50.85;;;27.88;;
13493;SDS011;6819;50.886;4.332;2022-08-19T01:36:44;48.28;;;28.98;;
13493;SDS011;6819;50.886;4.332;2022-08-19T01:39:12;50.20;;;28.05;;
13493;SDS011;6819;50.886;4.332;2022-08-19T01:41:39;43.85;;;27.60;;
13493;SDS011;6819;50.886;4.332;2022-08-19T01:44:05;45.65;;;26.60;;
13493;SDS011;6819;50.886;4.332;2022-08-19T01:46:32;46.70;;;26.75;;
13493;SDS011;6819;50.886;4.332;2022-08-19T01:48:58;46.08;;;27.08;;
13493;SDS011;6819;50.886;4.332;2022-08-19T01:51:25;43.22;;;26.70;;
13493;SDS011;6819;50.886;4.332;2022-08-19T01:53:51;42.88;;;26.25;;
13493;SDS011;6819;50.886;4.332;2022-08-19T01:56:18;42.20;;;26.30;;
13493;SDS011;6819;50.886;4.332;2022-08-19T01:59:05;49.95;;;26.40;;
13493;SDS011;6819;50.886;4.332;2022-08-19T02:01:33;40.60;;;23.60;;
13493;SDS011;6819;50.886;4.332;2022-08-19T02:03:59;41.35;;;25.58;;
13493;SDS011;6819;50.886;4.332;2022-08-19T02:06:26;38.80;;;23.60;;
13493;SDS011;6819;50.886;4.332;2022-08-19T02:08:52;37.33;;;22.58;;
13493;SDS011;6819;50.886;4.332;2022-08-19T02:11:20;39.28;;;22.92;;
13493;SDS011;6819;50.886;4.332;2022-08-19T02:13:46;36.10;;;21.55;;
13493;SDS011;6819;50.886;4.332;2022-08-19T02:16:12;37.08;;;21.02;;
13493;SDS011;6819;50.886;4.332;2022-08-19T02:18:38;29.52;;;19.33;;
13493;SDS011;6819;50.886;4.332;2022-08-19T02:21:04;30.23;;;18.63;;
13493;SDS011;6819;50.886;4.332;2022-08-19T02:23:31;34.58;;;19.75;;
13493;SDS011;6819;50.886;4.332;2022-08-19T02:25:57;31.85;;;19.60;;
13493;SDS011;6819;50.886;4.332;2022-08-19T02:28:23;30.25;;;19.55;;
13493;SDS011;6819;50.886;4.332;2022-08-19T02:30:49;32.53;;;19.10;;
13493;SDS011;6819;50.886;4.332;2022-08-19T02:33:15;34.90;;;19.80;;
13493;SDS011;6819;50.886;4.332;2022-08-19T02:35:42;42.03;;;21.35;;
13493;SDS011;6819;50.886;4.332;2022-08-19T02:38:08;33.03;;;20.05;;
13493;SDS011;6819;50.886;4.332;2022-08-19T02:40:54;32.53;;;19.33;;
13493;SDS011;6819;50.886;4.332;2022-08-19T02:43:21;29.38;;;18.40;;
13493;SDS011;6819;50.886;4.332;2022-08-19T02:45:47;32.70;;;19.98;;
13493;SDS011;6819;50.886;4.332;2022-08-19T02:48:23;32.38;;;18.23;;
13493;SDS011;6819;50.886;4.332;2022-08-19T02:50:50;29.15;;;18.50;;
13493;SDS011;6819;50.886;4.332;2022-08-19T02:53:24;32.67;;;20.15;;
13493;SDS011;6819;50.886;4.332;2022-08-19T02:55:50;31.65;;;18.23;;
13493;SDS011;6819;50.886;4.332;2022-08-19T02:58:17;31.70;;;19.30;;
13493;SDS011;6819;50.886;4.332;2022-08-19T03:00:47;32.78;;;19.35;;
13493;SDS011;6819;50.886;4.332;2022-08-19T03:03:14;31.35;;;18.60;;
13493;SDS011;6819;50.886;4.332;2022-08-19T03:05:40;26.83;;;18.38;;
13493;SDS011;6819;50.886;4.332;2022-08-19T03:08:08;31.90;;;18.05;;
13493;SDS011;6819;50.886;4.332;2022-08-19T03:10:43;28.75;;;17.30;;
13493;SDS011;6819;50.886;4.332;2022-08-19T03:13:15;32.80;;;18.60;;
13493;SDS011;6819;50.886;4.332;2022-08-19T03:15:44;30.10;;;18.35;;
13493;SDS011;6819;50.886;4.332;2022-08-19T03:18:11;33.08;;;17.40;;
13493;SDS011;6819;50.886;4.332;2022-08-19T03:20:47;29.83;;;17.40;;
13493;SDS011;6819;50.886;4.332;2022-08-19T03:23:14;30.17;;;17.98;;
13493;SDS011;6819;50.886;4.332;2022-08-19T03:25:40;28.60;;;17.38;;
13493;SDS011;6819;50.886;4.332;2022-08-19T03:28:08;29.10;;;17.02;;
13493;SDS011;6819;50.886;4.332;2022-08-19T03:30:34;27.75;;;16.58;;
13493;SDS011;6819;50.886;4.332;2022-08-19T03:33:00;28.52;;;17.45;;
13493;SDS011;6819;50.886;4.332;2022-08-19T03:35:26;29.17;;;15.63;;
13493;SDS011;6819;50.886;4.332;2022-08-19T03:37:52;29.17;;;16.77;;
13493;SDS011;6819;50.886;4.332;2022-08-19T03:40:18;35.08;;;18.20;;
13493;SDS011;6819;50.886;4.332;2022-08-19T03:42:44;28.90;;;16.85;;
13493;SDS011;6819;50.886;4.332;2022-08-19T03:45:11;29.25;;;16.40;;
13493;SDS011;6819;50.886;4.332;2022-08-19T03:47:37;32.40;;;16.92;;
13493;SDS011;6819;50.886;4.332;2022-08-19T03:50:03;27.77;;;15.93;;
13493;SDS011;6819;50.886;4.332;2022-08-19T03:52:30;25.40;;;15.15;;
13493;SDS011;6819;50.886;4.332;2022-08-19T03:54:56;31.33;;;17.38;;
13493;SDS011;6819;50.886;4.332;2022-08-19T03:57:22;31.17;;;15.98;;
13493;SDS011;6819;50.886;4.332;2022-08-19T03:59:48;34.05;;;16.25;;
13493;SDS011;6819;50.886;4.332;2022-08-19T04:02:14;27.90;;;16.40;;
13493;SDS011;6819;50.886;4.332;2022-08-19T04:04:41;25.85;;;15.95;;
13493;SDS011;6819;50.886;4.332;2022-08-19T04:07:08;30.88;;;16.65;;
13493;SDS011;6819;50.886;4.332;2022-08-19T04:09:35;33.90;;;16.60;;
13493;SDS011;6819;50.886;4.332;2022-08-19T04:12:01;31.17;;;16.80;;
13493;SDS011;6819;50.886;4.332;2022-08-19T04:14:30;29.73;;;16.13;;
13493;SDS011;6819;50.886;4.332;2022-08-19T04:16:56;32.20;;;16.95;;
13493;SDS011;6819;50.886;4.332;2022-08-19T04:19:23;29.10;;;16.02;;
13493;SDS011;6819;50.886;4.332;2022-08-19T04:21:49;31.20;;;17.50;;
13493;SDS011;6819;50.886;4.332;2022-08-19T04:24:16;27.08;;;16.17;;
13493;SDS011;6819;50.886;4.332;2022-08-19T04:26:42;28.52;;;15.90;;
13493;SDS011;6819;50.886;4.332;2022-08-19T04:29:10;30.17;;;16.50;;
13493;SDS011;6819;50.886;4.332;2022-08-19T04:31:36;23.35;;;15.10;;
13493;SDS011;6819;50.886;4.332;2022-08-19T04:34:06;34.95;;;17.25;;
13493;SDS011;6819;50.886;4.332;2022-08-19T04:36:35;34.72;;;16.83;;
13493;SDS011;6819;50.886;4.332;2022-08-19T04:39:04;29.83;;;16.38;;
13493;SDS011;6819;50.886;4.332;2022-08-19T04:41:31;32.35;;;16.10;;
13493;SDS011;6819;50.886;4.332;2022-08-19T04:44:15;27.35;;;14.85;;
13493;SDS011;6819;50.886;4.332;2022-08-19T04:46:45;31.35;;;16.25;;
13493;SDS011;6819;50.886;4.332;2022-08-19T04:49:12;27.02;;;15.55;;
13493;SDS011;6819;50.886;4.332;2022-08-19T04:51:39;27.05;;;16.00;;
13493;SDS011;6819;50.886;4.332;2022-08-19T04:54:07;25.70;;;16.40;;
13493;SDS011;6819;50.886;4.332;2022-08-19T04:56:33;34.58;;;15.55;;
13493;SDS011;6819;50.886;4.332;2022-08-19T04:58:59;27.10;;;15.07;;
13493;SDS011;6819;50.886;4.332;2022-08-19T05:01:28;25.48;;;14.82;;
13493;SDS011;6819;50.886;4.332;2022-08-19T05:03:55;25.33;;;14.63;;
13493;SDS011;6819;50.886;4.332;2022-08-19T05:06:22;26.20;;;15.30;;
13493;SDS011;6819;50.886;4.332;2022-08-19T05:08:48;25.92;;;14.02;;
13493;SDS011;6819;50.886;4.332;2022-08-19T05:11:24;27.67;;;14.18;;
13493;SDS011;6819;50.886;4.332;2022-08-19T05:13:50;25.95;;;14.52;;
13493;SDS011;6819;50.886;4.332;2022-08-19T05:16:17;30.35;;;14.65;;
13493;SDS011;6819;50.886;4.332;2022-08-19T05:18:44;27.05;;;13.80;;
13493;SDS011;6819;50.886;4.332;2022-08-19T05:21:29;28.05;;;14.50;;
13493;SDS011;6819;50.886;4.332;2022-08-19T05:24:14;26.33;;;13.73;;
13493;SDS011;6819;50.886;4.332;2022-08-19T05:26:44;26.77;;;14.18;;
13493;SDS011;6819;50.886;4.332;2022-08-19T05:29:11;30.48;;;14.68;;
13493;SDS011;6819;50.886;4.332;2022-08-19T05:31:38;25.45;;;13.80;;
13493;SDS011;6819;50.886;4.332;2022-08-19T05:34:04;27.85;;;15.50;;
13493;SDS011;6819;50.886;4.332;2022-08-19T05:36:33;28.40;;;14.38;;
13493;SDS011;6819;50.886;4.332;2022-08-19T05:38:59;27.10;;;14.02;;
13493;SDS011;6819;50.886;4.332;2022-08-19T05:41:25;25.17;;;14.38;;
13493;SDS011;6819;50.886;4.332;2022-08-19T05:43:54;28.92;;;15.75;;
13493;SDS011;6819;50.886;4.332;2022-08-19T05:46:21;29.85;;;14.88;;
13493;SDS011;6819;50.886;4.332;2022-08-19T05:48:48;23.75;;;13.02;;
13493;SDS011;6819;50.886;4.332;2022-08-19T05:51:14;29.55;;;13.93;;
13493;SDS011;6819;50.886;4.332;2022-08-19T05:53:41;22.10;;;13.07;;
13493;SDS011;6819;50.886;4.332;2022-08-19T05:56:08;24.83;;;14.43;;
13493;SDS011;6819;50.886;4.332;2022-08-19T05:58:35;27.00;;;14.05;;
13493;SDS011;6819;50.886;4.332;2022-08-19T06:01:01;27.95;;;13.95;;
13493;SDS011;6819;50.886;4.332;2022-08-19T06:03:33;28.27;;;13.93;;
13493;SDS011;6819;50.886;4.332;2022-08-19T06:05:59;21.45;;;11.80;;
13493;SDS011;6819;50.886;4.332;2022-08-19T06:08:26;23.38;;;13.57;;
13493;SDS011;6819;50.886;4.332;2022-08-19T06:10:52;21.20;;;11.50;;
13493;SDS011;6819;50.886;4.332;2022-08-19T06:13:18;21.20;;;11.52;;
13493;SDS011;6819;50.886;4.332;2022-08-19T06:15:45;21.95;;;11.32;;
13493;SDS011;6819;50.886;4.332;2022-08-19T06:18:12;23.17;;;11.73;;
13493;SDS011;6819;50.886;4.332;2022-08-19T06:20:38;20.45;;;10.05;;
13493;SDS011;6819;50.886;4.332;2022-08-19T06:23:04;21.40;;;10.82;;
13493;SDS011;6819;50.886;4.332;2022-08-19T06:25:30;15.68;;;9.23;;
13493;SDS011;6819;50.886;4.332;2022-08-19T06:27:57;17.00;;;10.13;;
13493;SDS011;6819;50.886;4.332;2022-08-19T06:30:23;20.45;;;10.50;;
13493;SDS011;6819;50.886;4.332;2022-08-19T06:32:49;18.85;;;10.00;;
13493;SDS011;6819;50.886;4.332;2022-08-19T06:35:15;14.27;;;9.35;;
13493;SDS011;6819;50.886;4.332;2022-08-19T06:37:42;20.27;;;9.98;;
13493;SDS011;6819;50.886;4.332;2022-08-19T06:40:09;14.90;;;9.45;;
13493;SDS011;6819;50.886;4.332;2022-08-19T06:42:37;23.02;;;9.98;;
13493;SDS011;6819;50.886;4.332;2022-08-19T06:45:04;15.80;;;9.65;;
13493;SDS011;6819;50.886;4.332;2022-08-19T06:47:30;15.88;;;10.10;;
13493;SDS011;6819;50.886;4.332;2022-08-19T06:49:57;15.23;;;9.88;;
13493;SDS011;6819;50.886;4.332;2022-08-19T06:52:27;18.48;;;8.88;;
13493;SDS011;6819;50.886;4.332;2022-08-19T06:54:53;18.15;;;9.13;;
13493;SDS011;6819;50.886;4.332;2022-08-19T06:57:20;16.50;;;9.27;;
13493;SDS011;6819;50.886;4.332;2022-08-19T06:59:46;20.10;;;10.07;;
13493;SDS011;6819;50.886;4.332;2022-08-19T07:02:12;14.77;;;8.88;;
13493;SDS011;6819;50.886;4.332;2022-08-19T07:04:38;14.75;;;8.75;;
13493;SDS011;6819;50.886;4.332;2022-08-19T07:07:08;17.35;;;8.20;;
13493;SDS011;6819;50.886;4.332;2022-08-19T07:09:37;16.27;;;8.65;;
13493;SDS011;6819;50.886;4.332;2022-08-19T07:12:04;15.20;;;8.38;;
13493;SDS011;6819;50.886;4.332;2022-08-19T07:14:31;14.85;;;8.23;;
13493;SDS011;6819;50.886;4.332;2022-08-19T07:16:57;18.75;;;8.63;;
13493;SDS011;6819;50.886;4.332;2022-08-19T07:19:24;16.98;;;8.98;;
13493;SDS011;6819;50.886;4.332;2022-08-19T07:21:53;18.95;;;8.60;;
13493;SDS011;6819;50.886;4.332;2022-08-19T07:24:21;15.63;;;8.13;;
13493;SDS011;6819;50.886;4.332;2022-08-19T07:26:48;19.30;;;9.00;;
13493;SDS011;6819;50.886;4.332;2022-08-19T07:29:15;14.60;;;8.00;;
13493;SDS011;6819;50.886;4.332;2022-08-19T07:31:42;14.38;;;8.20;;
13493;SDS011;6819;50.886;4.332;2022-08-19T07:34:08;14.80;;;7.32;;
13493;SDS011;6819;50.886;4.332;2022-08-19T07:36:37;13.48;;;7.25;;
13493;SDS011;6819;50.886;4.332;2022-08-19T07:39:05;15.73;;;7.20;;
13493;SDS011;6819;50.886;4.332;2022-08-19T07:41:31;13.73;;;6.80;;
13493;SDS011;6819;50.886;4.332;2022-08-19T07:43:58;13.27;;;7.25;;
13493;SDS011;6819;50.886;4.332;2022-08-19T07:46:28;11.50;;;6.70;;
13493;SDS011;6819;50.886;4.332;2022-08-19T07:48:55;12.90;;;5.63;;
13493;SDS011;6819;50.886;4.332;2022-08-19T07:51:21;14.15;;;5.63;;
13493;SDS011;6819;50.886;4.332;2022-08-19T07:53:47;13.48;;;5.32;;
13493;SDS011;6819;50.886;4.332;2022-08-19T07:56:15;16.60;;;4.93;;
13493;SDS011;6819;50.886;4.332;2022-08-19T07:58:43;11.68;;;5.05;;
13493;SDS011;6819;50.886;4.332;2022-08-19T08:01:11;12.68;;;6.10;;
13493;SDS011;6819;50.886;4.332;2022-08-19T08:03:38;10.73;;;5.50;;
13493;SDS011;6819;50.886;4.332;2022-08-19T08:06:23;9.90;;;5.93;;
13493;SDS011;6819;50.886;4.332;2022-08-19T08:09:08;11.32;;;6.07;;
13493;SDS011;6819;50.886;4.332;2022-08-19T08:11:36;10.68;;;5.50;;
13493;SDS011;6819;50.886;4.332;2022-08-19T08:14:02;14.63;;;5.63;;
13493;SDS011;6819;50.886;4.332;2022-08-19T08:16:29;11.10;;;6.07;;
13493;SDS011;6819;50.886;4.332;2022-08-19T08:18:56;9.88;;;5.63;;
13493;SDS011;6819;50.886;4.332;2022-08-19T08:21:22;8.93;;;5.97;;
13493;SDS011;6819;50.886;4.332;2022-08-19T08:23:48;11.57;;;6.85;;
13493;SDS011;6819;50.886;4.332;2022-08-19T08:26:14;10.40;;;6.90;;
13493;SDS011;6819;50.886;4.332;2022-08-19T08:28:41;9.75;;;6.43;;
13493;SDS011;6819;50.886;4.332;2022-08-19T08:31:07;13.98;;;6.07;;
13493;SDS011;6819;50.886;4.332;2022-08-19T08:33:34;12.80;;;6.22;;
13493;SDS011;6819;50.886;4.332;2022-08-19T08:36:01;12.00;;;5.97;;
13493;SDS011;6819;50.886;4.332;2022-08-19T08:38:28;12.07;;;6.53;;
13493;SDS011;6819;50.886;4.332;2022-08-19T08:40:58;11.93;;;5.57;;
13493;SDS011;6819;50.886;4.332;2022-08-19T08:43:35;9.18;;;5.22;;
13493;SDS011;6819;50.886;4.332;2022-08-19T08:46:03;11.55;;;5.70;;
13493;SDS011;6819;50.886;4.332;2022-08-19T08:48:37;9.23;;;5.18;;
13493;SDS011;6819;50.886;4.332;2022-08-19T08:51:07;15.55;;;5.32;;
13493;SDS011;6819;50.886;4.332;2022-08-19T08:53:35;9.27;;;5.03;;
13493;SDS011;6819;50.886;4.332;2022-08-19T08:56:03;10.57;;;5.20;;
13493;SDS011;6819;50.886;4.332;2022-08-19T08:58:36;10.85;;;4.80;;
13493;SDS011;6819;50.886;4.332;2022-08-19T09:01:08;9.93;;;5.63;;
13493;SDS011;6819;50.886;4.332;2022-08-19T09:03:36;10.57;;;5.40;;
13493;SDS011;6819;50.886;4.332;2022-08-19T09:06:07;9.02;;;5.18;;
13493;SDS011;6819;50.886;4.332;2022-08-19T09:11:04;13.50;;;5.97;;
13493;SDS011;6819;50.886;4.332;2022-08-19T09:18:51;11.25;;;5.50;;
13493;SDS011;6819;50.886;4.332;2022-08-19T09:21:19;10.07;;;5.55;;
13493;SDS011;6819;50.886;4.332;2022-08-19T09:23:45;10.07;;;4.82;;
13493;SDS011;6819;50.886;4.332;2022-08-19T09:26:15;11.25;;;5.82;;
13493;SDS011;6819;50.886;4.332;2022-08-19T09:28:42;9.02;;;5.32;;
13493;SDS011;6819;50.886;4.332;2022-08-19T09:31:09;8.73;;;5.68;;
13493;SDS011;6819;50.886;4.332;2022-08-19T09:33:35;10.35;;;5.90;;
13493;SDS011;6819;50.886;4.332;2022-08-19T09:36:05;10.65;;;6.07;;
13493;SDS011;6819;50.886;4.332;2022-08-19T09:38:32;9.95;;;5.70;;
13493;SDS011;6819;50.886;4.332;2022-08-19T09:41:01;9.38;;;4.82;;
13493;SDS011;6819;50.886;4.332;2022-08-19T09:43:27;7.55;;;5.15;;
13493;SDS011;6819;50.886;4.332;2022-08-19T09:45:53;9.57;;;4.82;;
13493;SDS011;6819;50.886;4.332;2022-08-19T09:48:19;8.40;;;4.47;;
13493;SDS011;6819;50.886;4.332;2022-08-19T09:50:46;10.68;;;4.72;;
13493;SDS011;6819;50.886;4.332;2022-08-19T09:53:13;8.15;;;5.15;;
13493;SDS011;6819;50.886;4.332;2022-08-19T09:55:42;11.00;;;4.57;;
13493;SDS011;6819;50.886;4.332;2022-08-19T09:58:08;8.50;;;4.80;;
13493;SDS011;6819;50.886;4.332;2022-08-19T10:00:36;5.63;;;4.13;;
13493;SDS011;6819;50.886;4.332;2022-08-19T10:03:03;8.68;;;4.70;;
13493;SDS011;6819;50.886;4.332;2022-08-19T10:05:29;7.28;;;4.40;;
13493;SDS011;6819;50.886;4.332;2022-08-19T10:08:13;6.38;;;4.40;;
13493;SDS011;6819;50.886;4.332;2022-08-19T10:10:39;6.05;;;4.25;;
13493;SDS011;6819;50.886;4.332;2022-08-19T10:13:08;8.35;;;4.55;;
13493;SDS011;6819;50.886;4.332;2022-08-19T10:15:35;6.97;;;4.38;;
13493;SDS011;6819;50.886;4.332;2022-08-19T10:18:04;7.72;;;4.57;;
13493;SDS011;6819;50.886;4.332;2022-08-19T10:20:30;7.38;;;4.50;;
13493;SDS011;6819;50.886;4.332;2022-08-19T10:22:56;8.85;;;4.57;;
13493;SDS011;6819;50.886;4.332;2022-08-19T10:25:24;7.82;;;4.70;;
13493;SDS011;6819;50.886;4.332;2022-08-19T10:27:51;7.57;;;4.68;;
13493;SDS011;6819;50.886;4.332;2022-08-19T10:30:17;11.20;;;4.65;;
13493;SDS011;6819;50.886;4.332;2022-08-19T10:32:44;7.45;;;5.35;;
13493;SDS011;6819;50.886;4.332;2022-08-19T10:35:11;10.60;;;5.25;;
13493;SDS011;6819;50.886;4.332;2022-08-19T10:37:37;8.38;;;4.97;;
13493;SDS011;6819;50.886;4.332;2022-08-19T10:40:05;11.63;;;5.03;;
13493;SDS011;6819;50.886;4.332;2022-08-19T10:42:32;8.57;;;4.70;;
13493;SDS011;6819;50.886;4.332;2022-08-19T10:44:58;10.05;;;5.28;;
13493;SDS011;6819;50.886;4.332;2022-08-19T10:47:24;7.53;;;4.55;;
13493;SDS011;6819;50.886;4.332;2022-08-19T10:49:50;9.93;;;5.55;;
13493;SDS011;6819;50.886;4.332;2022-08-19T10:55:06;9.80;;;4.80;;
13493;SDS011;6819;50.886;4.332;2022-08-19T10:57:51;7.70;;;4.93;;
13493;SDS011;6819;50.886;4.332;2022-08-19T11:00:18;9.30;;;4.20;;
13493;SDS011;6819;50.886;4.332;2022-08-19T11:02:44;16.30;;;5.47;;
13493;SDS011;6819;50.886;4.332;2022-08-19T11:05:11;9.85;;;4.18;;
13493;SDS011;6819;50.886;4.332;2022-08-19T11:07:38;8.80;;;4.60;;
13493;SDS011;6819;50.886;4.332;2022-08-19T11:10:05;6.72;;;4.05;;
13493;SDS011;6819;50.886;4.332;2022-08-19T11:12:32;5.63;;;4.22;;
13493;SDS011;6819;50.886;4.332;2022-08-19T11:14:58;7.72;;;3.70;;
13493;SDS011;6819;50.886;4.332;2022-08-19T11:17:24;5.03;;;3.10;;
13493;SDS011;6819;50.886;4.332;2022-08-19T11:19:50;7.80;;;4.25;;
13493;SDS011;6819;50.886;4.332;2022-08-19T11:22:16;6.18;;;3.80;;
13493;SDS011;6819;50.886;4.332;2022-08-19T11:24:42;5.10;;;4.05;;
13493;SDS011;6819;50.886;4.332;2022-08-19T11:27:09;5.50;;;3.90;;
13493;SDS011;6819;50.886;4.332;2022-08-19T11:29:37;6.43;;;3.60;;
13493;SDS011;6819;50.886;4.332;2022-08-19T11:32:04;7.40;;;4.53;;
13493;SDS011;6819;50.886;4.332;2022-08-19T11:34:31;6.25;;;4.22;;
13493;SDS011;6819;50.886;4.332;2022-08-19T11:36:57;10.40;;;5.70;;
13493;SDS011;6819;50.886;4.332;2022-08-19T11:39:24;7.80;;;4.90;;
13493;SDS011;6819;50.886;4.332;2022-08-19T11:41:50;11.07;;;6.72;;
13493;SDS011;6819;50.886;4.332;2022-08-19T11:44:16;11.48;;;7.68;;
13493;SDS011;6819;50.886;4.332;2022-08-19T11:46:43;12.75;;;7.20;;
13493;SDS011;6819;50.886;4.332;2022-08-19T11:49:12;9.55;;;7.07;;
13493;SDS011;6819;50.886;4.332;2022-08-19T11:51:38;12.75;;;7.38;;
13493;SDS011;6819;50.886;4.332;2022-08-19T11:54:04;8.98;;;7.03;;
13493;SDS011;6819;50.886;4.332;2022-08-19T11:56:31;10.75;;;7.43;;
13493;SDS011;6819;50.886;4.332;2022-08-19T11:58:57;10.90;;;7.60;;
13493;SDS011;6819;50.886;4.332;2022-08-19T12:01:24;10.98;;;7.20;;
13493;SDS011;6819;50.886;4.332;2022-08-19T12:03:52;8.95;;;7.10;;
13493;SDS011;6819;50.886;4.332;2022-08-19T12:06:20;9.65;;;6.50;;
13493;SDS011;6819;50.886;4.332;2022-08-19T12:08:50;10.50;;;6.18;;
13493;SDS011;6819;50.886;4.332;2022-08-19T12:11:16;8.95;;;5.68;;
13493;SDS011;6819;50.886;4.332;2022-08-19T12:13:42;6.78;;;5.50;;
13493;SDS011;6819;50.886;4.332;2022-08-19T12:16:22;7.68;;;5.30;;
13493;SDS011;6819;50.886;4.332;2022-08-19T12:18:49;6.93;;;5.30;;
13493;SDS011;6819;50.886;4.332;2022-08-19T12:21:16;7.20;;;5.07;;
13493;SDS011;6819;50.886;4.332;2022-08-19T12:23:43;6.05;;;4.80;;
13493;SDS011;6819;50.886;4.332;2022-08-19T12:26:12;8.02;;;4.85;;
13493;SDS011;6819;50.886;4.332;2022-08-19T12:28:38;7.72;;;4.55;;
13493;SDS011;6819;50.886;4.332;2022-08-19T12:31:04;6.22;;;4.93;;
13493;SDS011;6819;50.886;4.332;2022-08-19T12:33:30;8.85;;;4.28;;
13493;SDS011;6819;50.886;4.332;2022-08-19T12:35:59;6.75;;;3.92;;
13493;SDS011;6819;50.886;4.332;2022-08-19T12:38:26;6.75;;;3.65;;
13493;SDS011;6819;50.886;4.332;2022-08-19T12:40:52;7.47;;;3.70;;
13493;SDS011;6819;50.886;4.332;2022-08-19T12:43:18;3.35;;;2.80;;
13493;SDS011;6819;50.886;4.332;2022-08-19T12:45:45;4.32;;;2.90;;
13493;SDS011;6819;50.886;4.332;2022-08-19T12:48:11;5.10;;;3.65;;
13493;SDS011;6819;50.886;4.332;2022-08-19T12:50:41;4.53;;;3.10;;
13493;SDS011;6819;50.886;4.332;2022-08-19T12:53:07;3.00;;;2.50;;
13493;SDS011;6819;50.886;4.332;2022-08-19T12:55:34;4.47;;;3.00;;
13493;SDS011;6819;50.886;4.332;2022-08-19T12:58:00;5.15;;;3.00;;
13493;SDS011;6819;50.886;4.332;2022-08-19T13:00:26;6.05;;;3.10;;
13493;SDS011;6819;50.886;4.332;2022-08-19T13:02:52;4.07;;;2.85;;
13493;SDS011;6819;50.886;4.332;2022-08-19T13:05:23;4.57;;;2.90;;
13493;SDS011;6819;50.886;4.332;2022-08-19T13:07:50;5.25;;;2.97;;
13493;SDS011;6819;50.886;4.332;2022-08-19T13:10:17;4.13;;;2.95;;
13493;SDS011;6819;50.886;4.332;2022-08-19T13:12:45;5.18;;;3.03;;
13493;SDS011;6819;50.886;4.332;2022-08-19T13:15:12;4.53;;;2.70;;
13493;SDS011;6819;50.886;4.332;2022-08-19T13:17:39;6.18;;;3.53;;
13493;SDS011;6819;50.886;4.332;2022-08-19T13:20:06;2.83;;;2.58;;
13493;SDS011;6819;50.886;4.332;2022-08-19T13:22:33;4.30;;;3.00;;
13493;SDS011;6819;50.886;4.332;2022-08-19T13:25:00;3.70;;;2.92;;
13493;SDS011;6819;50.886;4.332;2022-08-19T13:27:27;5.47;;;2.97;;
13493;SDS011;6819;50.886;4.332;2022-08-19T13:29:52;4.30;;;2.60;;
13493;SDS011;6819;50.886;4.332;2022-08-19T13:32:37;6.25;;;3.80;;
13493;SDS011;6819;50.886;4.332;2022-08-19T13:35:22;2.88;;;2.33;;
13493;SDS011;6819;50.886;4.332;2022-08-19T13:37:48;3.92;;;2.70;;
13493;SDS011;6819;50.886;4.332;2022-08-19T13:40:15;4.70;;;2.45;;
13493;SDS011;6819;50.886;4.332;2022-08-19T13:42:43;6.72;;;2.35;;
13493;SDS011;6819;50.886;4.332;2022-08-19T13:45:12;4.18;;;2.35;;
13493;SDS011;6819;50.886;4.332;2022-08-19T13:47:39;4.05;;;1.92;;
13493;SDS011;6819;50.886;4.332;2022-08-19T13:50:11;3.53;;;1.92;;
13493;SDS011;6819;50.886;4.332;2022-08-19T13:52:38;4.75;;;2.50;;
13493;SDS011;6819;50.886;4.332;2022-08-19T13:55:05;3.42;;;2.80;;
13493;SDS011;6819;50.886;4.332;2022-08-19T13:57:31;2.65;;;2.15;;
13493;SDS011;6819;50.886;4.332;2022-08-19T13:59:57;3.58;;;2.42;;
13493;SDS011;6819;50.886;4.332;2022-08-19T14:02:24;4.30;;;2.83;;
13493;SDS011;6819;50.886;4.332;2022-08-19T14:04:51;2.55;;;2.10;;
13493;SDS011;6819;50.886;4.332;2022-08-19T14:07:17;4.57;;;3.28;;
13493;SDS011;6819;50.886;4.332;2022-08-19T14:09:43;5.10;;;3.25;;
13493;SDS011;6819;50.886;4.332;2022-08-19T14:12:09;5.25;;;3.35;;
13493;SDS011;6819;50.886;4.332;2022-08-19T14:14:38;5.38;;;3.25;;
13493;SDS011;6819;50.886;4.332;2022-08-19T14:17:08;7.22;;;3.22;;
13493;SDS011;6819;50.886;4.332;2022-08-19T14:19:34;5.00;;;3.50;;
13493;SDS011;6819;50.886;4.332;2022-08-19T14:22:01;4.72;;;3.35;;
13493;SDS011;6819;50.886;4.332;2022-08-19T14:24:27;6.35;;;3.85;;
13493;SDS011;6819;50.886;4.332;2022-08-19T14:26:53;7.32;;;3.47;;
13493;SDS011;6819;50.886;4.332;2022-08-19T14:29:19;7.85;;;4.10;;
13493;SDS011;6819;50.886;4.332;2022-08-19T14:31:45;6.07;;;4.15;;
13493;SDS011;6819;50.886;4.332;2022-08-19T14:34:11;5.57;;;4.03;;
13493;SDS011;6819;50.886;4.332;2022-08-19T14:36:37;5.72;;;3.83;;
13493;SDS011;6819;50.886;4.332;2022-08-19T14:39:04;7.85;;;3.80;;
13493;SDS011;6819;50.886;4.332;2022-08-19T14:41:30;7.63;;;3.50;;
13493;SDS011;6819;50.886;4.332;2022-08-19T14:43:56;6.35;;;3.42;;
13493;SDS011;6819;50.886;4.332;2022-08-19T14:46:24;4.63;;;3.22;;
13493;SDS011;6819;50.886;4.332;2022-08-19T14:48:51;4.15;;;2.60;;
13493;SDS011;6819;50.886;4.332;2022-08-19T14:51:18;3.95;;;2.50;;
13493;SDS011;6819;50.886;4.332;2022-08-19T14:53:44;3.53;;;2.67;;
13493;SDS011;6819;50.886;4.332;2022-08-19T14:56:14;4.80;;;2.60;;
13493;SDS011;6819;50.886;4.332;2022-08-19T14:58:40;3.50;;;2.50;;